sensor_id;sensor_type;location;lat;lon;timestamp;P1;durP1;ratioP1;P2;durP2;ratioP2
27684;SDS011;46113;50.130;8.526;2023-05-07T00:01:01;8.40;;;0.93;;
27684;SDS011;46113;50.130;8.526;2023-05-07T00:03:28;4.50;;;0.65;;
27684;SDS011;46113;50.130;8.526;2023-05-07T00:05:55;0.90;;;0.50;;
27684;SDS011;46113;50.130;8.526;2023-05-07T00:08:22;2.08;;;0.50;;
27684;SDS011;46113;50.130;8.526;2023-05-07T00:10:49;1.95;;;0.55;;
27684;SDS011;46113;50.130;8.526;2023-05-07T00:13:15;0.68;;;0.68;;
27684;SDS011;46113;50.130;8.526;2023-05-07T00:15:42;0.90;;;0.47;;
27684;SDS011;46113;50.130;8.526;2023-05-07T00:18:09;1.30;;;0.90;;
27684;SDS011;46113;50.130;8.526;2023-05-07T00:20:35;4.22;;;0.55;;
27684;SDS011;46113;50.130;8.526;2023-05-07T00:23:02;0.70;;;0.70;;
27684;SDS011;46113;50.130;8.526;2023-05-07T00:25:29;0.70;;;0.70;;
27684;SDS011;46113;50.130;8.526;2023-05-07T00:27:56;0.57;;;0.57;;
27684;SDS011;46113;50.130;8.526;2023-05-07T00:30:23;1.15;;;0.40;;
27684;SDS011;46113;50.130;8.526;2023-05-07T00:32:50;1.85;;;0.77;;
27684;SDS011;46113;50.130;8.526;2023-05-07T00:35:17;0.93;;;0.60;;
27684;SDS011;46113;50.130;8.526;2023-05-07T00:37:44;0.47;;;0.47;;
27684;SDS011;46113;50.130;8.526;2023-05-07T00:40:10;0.70;;;0.70;;
27684;SDS011;46113;50.130;8.526;2023-05-07T00:42:38;3.00;;;0.68;;
27684;SDS011;46113;50.130;8.526;2023-05-07T00:45:05;1.17;;;0.70;;
27684;SDS011;46113;50.130;8.526;2023-05-07T00:47:32;1.45;;;0.70;;
27684;SDS011;46113;50.130;8.526;2023-05-07T00:49:59;1.35;;;0.80;;
27684;SDS011;46113;50.130;8.526;2023-05-07T00:52:26;0.63;;;0.60;;
27684;SDS011;46113;50.130;8.526;2023-05-07T00:54:53;1.23;;;0.70;;
27684;SDS011;46113;50.130;8.526;2023-05-07T00:57:21;0.95;;;0.57;;
27684;SDS011;46113;50.130;8.526;2023-05-07T00:59:48;1.52;;;0.82;;
27684;SDS011;46113;50.130;8.526;2023-05-07T01:02:16;3.42;;;1.00;;
27684;SDS011;46113;50.130;8.526;2023-05-07T01:04:43;0.80;;;0.70;;
27684;SDS011;46113;50.130;8.526;2023-05-07T01:07:10;1.27;;;0.85;;
27684;SDS011;46113;50.130;8.526;2023-05-07T01:09:37;3.92;;;0.60;;
27684;SDS011;46113;50.130;8.526;2023-05-07T01:12:04;0.73;;;0.60;;
27684;SDS011;46113;50.130;8.526;2023-05-07T01:14:31;4.38;;;0.90;;
27684;SDS011;46113;50.130;8.526;2023-05-07T01:16:59;3.15;;;0.98;;
27684;SDS011;46113;50.130;8.526;2023-05-07T01:19:26;1.23;;;0.70;;
27684;SDS011;46113;50.130;8.526;2023-05-07T01:21:56;0.98;;;0.88;;
27684;SDS011;46113;50.130;8.526;2023-05-07T01:24:31;0.75;;;0.75;;
27684;SDS011;46113;50.130;8.526;2023-05-07T01:26:59;2.05;;;0.90;;
27684;SDS011;46113;50.130;8.526;2023-05-07T01:29:30;1.35;;;0.82;;
27684;SDS011;46113;50.130;8.526;2023-05-07T01:31:58;1.90;;;1.10;;
27684;SDS011;46113;50.130;8.526;2023-05-07T01:34:27;3.08;;;1.05;;
27684;SDS011;46113;50.130;8.526;2023-05-07T01:36:56;4.00;;;0.93;;
27684;SDS011;46113;50.130;8.526;2023-05-07T01:39:25;0.98;;;0.70;;
27684;SDS011;46113;50.130;8.526;2023-05-07T01:41:54;0.93;;;0.57;;
27684;SDS011;46113;50.130;8.526;2023-05-07T01:44:23;1.25;;;0.80;;
27684;SDS011;46113;50.130;8.526;2023-05-07T01:46:51;2.97;;;1.27;;
27684;SDS011;46113;50.130;8.526;2023-05-07T01:49:18;2.75;;;0.70;;
27684;SDS011;46113;50.130;8.526;2023-05-07T01:51:45;1.33;;;1.05;;
27684;SDS011;46113;50.130;8.526;2023-05-07T01:54:12;1.10;;;1.00;;
27684;SDS011;46113;50.130;8.526;2023-05-07T01:56:38;1.25;;;1.10;;
27684;SDS011;46113;50.130;8.526;2023-05-07T01:59:05;1.33;;;1.00;;
27684;SDS011;46113;50.130;8.526;2023-05-07T02:01:32;1.65;;;1.25;;
27684;SDS011;46113;50.130;8.526;2023-05-07T02:03:59;2.65;;;1.00;;
27684;SDS011;46113;50.130;8.526;2023-05-07T02:09:46;1.45;;;1.10;;
27684;SDS011;46113;50.130;8.526;2023-05-07T02:12:13;2.72;;;1.15;;
27684;SDS011;46113;50.130;8.526;2023-05-07T02:14:40;1.48;;;1.23;;
27684;SDS011;46113;50.130;8.526;2023-05-07T02:17:07;3.08;;;0.90;;
27684;SDS011;46113;50.130;8.526;2023-05-07T02:19:34;9.48;;;3.20;;
27684;SDS011;46113;50.130;8.526;2023-05-07T02:22:01;1.27;;;1.17;;
27684;SDS011;46113;50.130;8.526;2023-05-07T02:24:29;2.28;;;1.00;;
27684;SDS011;46113;50.130;8.526;2023-05-07T02:26:57;0.98;;;0.82;;
27684;SDS011;46113;50.130;8.526;2023-05-07T02:29:23;1.48;;;1.15;;
27684;SDS011;46113;50.130;8.526;2023-05-07T02:31:52;0.95;;;0.82;;
27684;SDS011;46113;50.130;8.526;2023-05-07T02:34:19;1.33;;;0.90;;
27684;SDS011;46113;50.130;8.526;2023-05-07T02:36:46;1.20;;;1.10;;
27684;SDS011;46113;50.130;8.526;2023-05-07T02:39:17;1.55;;;1.00;;
27684;SDS011;46113;50.130;8.526;2023-05-07T02:41:44;2.42;;;1.17;;
27684;SDS011;46113;50.130;8.526;2023-05-07T02:44:10;2.00;;;1.17;;
27684;SDS011;46113;50.130;8.526;2023-05-07T02:46:37;1.65;;;1.10;;
27684;SDS011;46113;50.130;8.526;2023-05-07T02:49:08;2.03;;;1.23;;
27684;SDS011;46113;50.130;8.526;2023-05-07T02:51:34;2.20;;;0.95;;
27684;SDS011;46113;50.130;8.526;2023-05-07T02:54:06;1.77;;;1.30;;
27684;SDS011;46113;50.130;8.526;2023-05-07T02:56:33;1.95;;;1.02;;
27684;SDS011;46113;50.130;8.526;2023-05-07T02:58:59;2.42;;;1.08;;
27684;SDS011;46113;50.130;8.526;2023-05-07T03:01:31;1.75;;;1.42;;
27684;SDS011;46113;50.130;8.526;2023-05-07T03:04:02;2.08;;;1.35;;
27684;SDS011;46113;50.130;8.526;2023-05-07T03:06:28;1.73;;;1.23;;
27684;SDS011;46113;50.130;8.526;2023-05-07T03:08:55;1.70;;;1.42;;
27684;SDS011;46113;50.130;8.526;2023-05-07T03:11:22;2.78;;;1.10;;
27684;SDS011;46113;50.130;8.526;2023-05-07T03:13:48;3.45;;;1.63;;
27684;SDS011;46113;50.130;8.526;2023-05-07T03:16:18;3.28;;;1.40;;
27684;SDS011;46113;50.130;8.526;2023-05-07T03:18:45;1.05;;;0.90;;
27684;SDS011;46113;50.130;8.526;2023-05-07T03:21:12;1.50;;;1.40;;
27684;SDS011;46113;50.130;8.526;2023-05-07T03:23:38;3.53;;;1.50;;
27684;SDS011;46113;50.130;8.526;2023-05-07T03:26:05;7.45;;;2.05;;
27684;SDS011;46113;50.130;8.526;2023-05-07T03:28:31;1.38;;;1.27;;
27684;SDS011;46113;50.130;8.526;2023-05-07T03:31:02;1.77;;;1.67;;
27684;SDS011;46113;50.130;8.526;2023-05-07T03:33:29;2.15;;;1.90;;
27684;SDS011;46113;50.130;8.526;2023-05-07T03:35:56;5.45;;;1.65;;
27684;SDS011;46113;50.130;8.526;2023-05-07T03:41:41;2.08;;;1.88;;
27684;SDS011;46113;50.130;8.526;2023-05-07T03:44:08;3.70;;;2.00;;
27684;SDS011;46113;50.130;8.526;2023-05-07T03:46:35;2.60;;;2.28;;
27684;SDS011;46113;50.130;8.526;2023-05-07T03:49:02;3.05;;;2.03;;
27684;SDS011;46113;50.130;8.526;2023-05-07T03:51:29;2.60;;;1.85;;
27684;SDS011;46113;50.130;8.526;2023-05-07T03:53:56;2.33;;;2.13;;
27684;SDS011;46113;50.130;8.526;2023-05-07T03:56:25;2.13;;;2.03;;
27684;SDS011;46113;50.130;8.526;2023-05-07T03:58:56;1.75;;;1.65;;
27684;SDS011;46113;50.130;8.526;2023-05-07T04:01:23;5.32;;;2.20;;
27684;SDS011;46113;50.130;8.526;2023-05-07T04:03:50;2.08;;;1.90;;
27684;SDS011;46113;50.130;8.526;2023-05-07T04:06:17;2.33;;;2.05;;
27684;SDS011;46113;50.130;8.526;2023-05-07T04:08:46;3.40;;;2.10;;
27684;SDS011;46113;50.130;8.526;2023-05-07T04:11:15;2.95;;;1.92;;
27684;SDS011;46113;50.130;8.526;2023-05-07T04:13:42;2.05;;;1.88;;
27684;SDS011;46113;50.130;8.526;2023-05-07T04:16:08;2.78;;;2.08;;
27684;SDS011;46113;50.130;8.526;2023-05-07T04:18:36;2.60;;;2.25;;
27684;SDS011;46113;50.130;8.526;2023-05-07T04:21:04;2.58;;;2.38;;
27684;SDS011;46113;50.130;8.526;2023-05-07T04:23:33;2.47;;;2.28;;
27684;SDS011;46113;50.130;8.526;2023-05-07T04:26:03;3.00;;;2.33;;
27684;SDS011;46113;50.130;8.526;2023-05-07T04:28:35;3.00;;;2.70;;
27684;SDS011;46113;50.130;8.526;2023-05-07T04:31:01;2.97;;;2.45;;
27684;SDS011;46113;50.130;8.526;2023-05-07T04:33:30;2.85;;;2.15;;
27684;SDS011;46113;50.130;8.526;2023-05-07T04:35:58;2.65;;;2.25;;
27684;SDS011;46113;50.130;8.526;2023-05-07T04:38:31;4.13;;;2.70;;
27684;SDS011;46113;50.130;8.526;2023-05-07T04:41:03;2.58;;;2.38;;
27684;SDS011;46113;50.130;8.526;2023-05-07T04:43:34;4.55;;;2.92;;
27684;SDS011;46113;50.130;8.526;2023-05-07T04:46:01;4.50;;;2.88;;
27684;SDS011;46113;50.130;8.526;2023-05-07T04:48:29;3.45;;;3.13;;
27684;SDS011;46113;50.130;8.526;2023-05-07T04:50:57;2.95;;;2.42;;
27684;SDS011;46113;50.130;8.526;2023-05-07T04:53:24;3.70;;;2.88;;
27684;SDS011;46113;50.130;8.526;2023-05-07T04:55:56;4.47;;;2.72;;
27684;SDS011;46113;50.130;8.526;2023-05-07T04:58:27;3.92;;;2.97;;
27684;SDS011;46113;50.130;8.526;2023-05-07T05:01:00;2.72;;;2.45;;
27684;SDS011;46113;50.130;8.526;2023-05-07T05:03:28;3.58;;;3.25;;
27684;SDS011;46113;50.130;8.526;2023-05-07T05:05:55;3.13;;;2.83;;
27684;SDS011;46113;50.130;8.526;2023-05-07T05:08:25;4.05;;;2.60;;
27684;SDS011;46113;50.130;8.526;2023-05-07T05:10:52;3.47;;;2.70;;
27684;SDS011;46113;50.130;8.526;2023-05-07T05:13:19;4.63;;;2.85;;
27684;SDS011;46113;50.130;8.526;2023-05-07T05:15:46;4.05;;;3.08;;
27684;SDS011;46113;50.130;8.526;2023-05-07T05:18:14;4.35;;;3.10;;
27684;SDS011;46113;50.130;8.526;2023-05-07T05:20:40;3.13;;;2.85;;
27684;SDS011;46113;50.130;8.526;2023-05-07T05:23:07;4.55;;;2.97;;
27684;SDS011;46113;50.130;8.526;2023-05-07T05:25:35;5.03;;;3.03;;
27684;SDS011;46113;50.130;8.526;2023-05-07T05:28:02;3.75;;;2.97;;
27684;SDS011;46113;50.130;8.526;2023-05-07T05:30:30;4.18;;;3.05;;
27684;SDS011;46113;50.130;8.526;2023-05-07T05:36:14;5.63;;;3.47;;
27684;SDS011;46113;50.130;8.526;2023-05-07T05:38:42;3.40;;;2.97;;
27684;SDS011;46113;50.130;8.526;2023-05-07T05:41:10;4.25;;;3.08;;
27684;SDS011;46113;50.130;8.526;2023-05-07T05:43:37;4.57;;;2.83;;
27684;SDS011;46113;50.130;8.526;2023-05-07T05:46:04;4.38;;;3.67;;
27684;SDS011;46113;50.130;8.526;2023-05-07T05:48:31;3.42;;;2.85;;
27684;SDS011;46113;50.130;8.526;2023-05-07T05:51:00;5.68;;;3.38;;
27684;SDS011;46113;50.130;8.526;2023-05-07T05:53:27;3.28;;;2.92;;
27684;SDS011;46113;50.130;8.526;2023-05-07T05:55:54;4.20;;;2.92;;
27684;SDS011;46113;50.130;8.526;2023-05-07T05:58:21;6.20;;;3.08;;
27684;SDS011;46113;50.130;8.526;2023-05-07T06:00:53;4.93;;;3.38;;
27684;SDS011;46113;50.130;8.526;2023-05-07T06:03:23;5.43;;;3.38;;
27684;SDS011;46113;50.130;8.526;2023-05-07T06:05:50;5.03;;;2.85;;
27684;SDS011;46113;50.130;8.526;2023-05-07T06:08:19;7.03;;;3.17;;
27684;SDS011;46113;50.130;8.526;2023-05-07T06:10:46;5.05;;;3.60;;
27684;SDS011;46113;50.130;8.526;2023-05-07T06:13:14;4.95;;;3.35;;
27684;SDS011;46113;50.130;8.526;2023-05-07T06:15:41;4.72;;;3.83;;
27684;SDS011;46113;50.130;8.526;2023-05-07T06:18:12;3.42;;;3.08;;
27684;SDS011;46113;50.130;8.526;2023-05-07T06:20:39;3.47;;;3.03;;
27684;SDS011;46113;50.130;8.526;2023-05-07T06:23:11;3.65;;;3.13;;
27684;SDS011;46113;50.130;8.526;2023-05-07T06:25:38;5.18;;;3.17;;
27684;SDS011;46113;50.130;8.526;2023-05-07T06:28:05;5.97;;;3.42;;
27684;SDS011;46113;50.130;8.526;2023-05-07T06:30:34;4.20;;;3.78;;
27684;SDS011;46113;50.130;8.526;2023-05-07T06:33:01;4.38;;;3.05;;
27684;SDS011;46113;50.130;8.526;2023-05-07T06:35:28;4.22;;;3.28;;
27684;SDS011;46113;50.130;8.526;2023-05-07T06:37:55;5.40;;;2.80;;
27684;SDS011;46113;50.130;8.526;2023-05-07T06:40:25;5.45;;;3.30;;
27684;SDS011;46113;50.130;8.526;2023-05-07T06:42:52;4.10;;;2.85;;
27684;SDS011;46113;50.130;8.526;2023-05-07T06:45:35;5.03;;;3.63;;
27684;SDS011;46113;50.130;8.526;2023-05-07T06:48:03;4.43;;;4.03;;
27684;SDS011;46113;50.130;8.526;2023-05-07T06:50:36;6.88;;;3.80;;
27684;SDS011;46113;50.130;8.526;2023-05-07T06:53:03;3.72;;;3.33;;
27684;SDS011;46113;50.130;8.526;2023-05-07T06:55:31;6.47;;;3.47;;
27684;SDS011;46113;50.130;8.526;2023-05-07T06:57:58;5.97;;;3.38;;
27684;SDS011;46113;50.130;8.526;2023-05-07T07:00:27;4.57;;;3.50;;
27684;SDS011;46113;50.130;8.526;2023-05-07T07:02:55;3.80;;;3.38;;
27684;SDS011;46113;50.130;8.526;2023-05-07T07:05:26;4.00;;;3.13;;
27684;SDS011;46113;50.130;8.526;2023-05-07T07:07:54;3.65;;;3.15;;
27684;SDS011;46113;50.130;8.526;2023-05-07T07:10:21;3.92;;;3.53;;
27684;SDS011;46113;50.130;8.526;2023-05-07T07:12:50;3.80;;;3.35;;
27684;SDS011;46113;50.130;8.526;2023-05-07T07:15:17;6.35;;;3.97;;
27684;SDS011;46113;50.130;8.526;2023-05-07T07:17:44;4.47;;;3.67;;
27684;SDS011;46113;50.130;8.526;2023-05-07T07:20:11;3.65;;;3.30;;
27684;SDS011;46113;50.130;8.526;2023-05-07T07:22:42;4.57;;;3.80;;
27684;SDS011;46113;50.130;8.526;2023-05-07T07:25:09;5.43;;;3.47;;
27684;SDS011;46113;50.130;8.526;2023-05-07T07:27:36;3.97;;;3.60;;
27684;SDS011;46113;50.130;8.526;2023-05-07T07:30:04;3.55;;;3.20;;
27684;SDS011;46113;50.130;8.526;2023-05-07T07:32:34;7.85;;;3.55;;
27684;SDS011;46113;50.130;8.526;2023-05-07T07:35:01;4.38;;;3.45;;
27684;SDS011;46113;50.130;8.526;2023-05-07T07:37:28;4.22;;;3.55;;
27684;SDS011;46113;50.130;8.526;2023-05-07T07:39:56;3.38;;;2.97;;
27684;SDS011;46113;50.130;8.526;2023-05-07T07:42:23;5.28;;;3.80;;
27684;SDS011;46113;50.130;8.526;2023-05-07T07:44:49;3.85;;;3.22;;
27684;SDS011;46113;50.130;8.526;2023-05-07T07:47:19;6.85;;;3.25;;
27684;SDS011;46113;50.130;8.526;2023-05-07T07:49:47;4.57;;;3.60;;
27684;SDS011;46113;50.130;8.526;2023-05-07T07:52:14;3.95;;;3.42;;
27684;SDS011;46113;50.130;8.526;2023-05-07T07:54:44;4.75;;;2.83;;
27684;SDS011;46113;50.130;8.526;2023-05-07T07:57:11;3.72;;;3.38;;
27684;SDS011;46113;50.130;8.526;2023-05-07T07:59:38;4.50;;;3.60;;
27684;SDS011;46113;50.130;8.526;2023-05-07T08:02:10;7.18;;;3.10;;
27684;SDS011;46113;50.130;8.526;2023-05-07T08:04:37;4.25;;;3.28;;
27684;SDS011;46113;50.130;8.526;2023-05-07T08:07:06;4.05;;;3.38;;
27684;SDS011;46113;50.130;8.526;2023-05-07T08:09:39;4.57;;;3.70;;
27684;SDS011;46113;50.130;8.526;2023-05-07T08:12:07;3.70;;;3.08;;
27684;SDS011;46113;50.130;8.526;2023-05-07T08:14:34;2.80;;;2.60;;
27684;SDS011;46113;50.130;8.526;2023-05-07T08:17:04;3.95;;;2.88;;
27684;SDS011;46113;50.130;8.526;2023-05-07T08:19:31;4.43;;;3.20;;
27684;SDS011;46113;50.130;8.526;2023-05-07T08:21:58;4.28;;;3.08;;
27684;SDS011;46113;50.130;8.526;2023-05-07T08:24:25;3.63;;;3.33;;
27684;SDS011;46113;50.130;8.526;2023-05-07T08:26:52;3.92;;;2.83;;
27684;SDS011;46113;50.130;8.526;2023-05-07T08:29:19;3.28;;;2.60;;
27684;SDS011;46113;50.130;8.526;2023-05-07T08:31:46;3.85;;;3.55;;
27684;SDS011;46113;50.130;8.526;2023-05-07T08:34:13;3.63;;;3.30;;
27684;SDS011;46113;50.130;8.526;2023-05-07T08:37:00;4.38;;;2.95;;
27684;SDS011;46113;50.130;8.526;2023-05-07T08:39:37;3.38;;;2.97;;
27684;SDS011;46113;50.130;8.526;2023-05-07T08:42:09;4.82;;;3.17;;
27684;SDS011;46113;50.130;8.526;2023-05-07T08:44:37;6.15;;;3.13;;
27684;SDS011;46113;50.130;8.526;2023-05-07T08:47:06;5.35;;;3.00;;
27684;SDS011;46113;50.130;8.526;2023-05-07T08:49:34;3.03;;;2.60;;
27684;SDS011;46113;50.130;8.526;2023-05-07T08:52:01;4.15;;;3.03;;
27684;SDS011;46113;50.130;8.526;2023-05-07T08:54:28;4.22;;;3.05;;
27684;SDS011;46113;50.130;8.526;2023-05-07T08:56:56;4.93;;;3.20;;
27684;SDS011;46113;50.130;8.526;2023-05-07T08:59:23;3.13;;;2.83;;
27684;SDS011;46113;50.130;8.526;2023-05-07T09:01:51;4.38;;;3.00;;
27684;SDS011;46113;50.130;8.526;2023-05-07T09:07:26;3.33;;;3.03;;
27684;SDS011;46113;50.130;8.526;2023-05-07T09:09:54;5.68;;;2.90;;
27684;SDS011;46113;50.130;8.526;2023-05-07T09:12:24;4.03;;;2.88;;
27684;SDS011;46113;50.130;8.526;2023-05-07T09:14:51;3.75;;;3.10;;
27684;SDS011;46113;50.130;8.526;2023-05-07T09:17:18;2.75;;;2.20;;
27684;SDS011;46113;50.130;8.526;2023-05-07T09:19:45;3.15;;;2.53;;
27684;SDS011;46113;50.130;8.526;2023-05-07T09:22:13;4.57;;;2.75;;
27684;SDS011;46113;50.130;8.526;2023-05-07T09:24:53;6.63;;;3.35;;
27684;SDS011;46113;50.130;8.526;2023-05-07T09:27:23;3.55;;;2.60;;
27684;SDS011;46113;50.130;8.526;2023-05-07T09:29:50;3.35;;;2.45;;
27684;SDS011;46113;50.130;8.526;2023-05-07T09:32:17;4.53;;;2.80;;
27684;SDS011;46113;50.130;8.526;2023-05-07T09:34:44;5.85;;;3.05;;
27684;SDS011;46113;50.130;8.526;2023-05-07T09:37:12;4.97;;;2.95;;
27684;SDS011;46113;50.130;8.526;2023-05-07T09:42:08;3.55;;;2.53;;
27684;SDS011;46113;50.130;8.526;2023-05-07T09:44:35;3.05;;;2.53;;
27684;SDS011;46113;50.130;8.526;2023-05-07T09:47:05;8.43;;;2.63;;
27684;SDS011;46113;50.130;8.526;2023-05-07T09:49:39;2.15;;;1.95;;
27684;SDS011;46113;50.130;8.526;2023-05-07T09:52:10;3.55;;;2.47;;
27684;SDS011;46113;50.130;8.526;2023-05-07T09:54:45;4.75;;;2.30;;
27684;SDS011;46113;50.130;8.526;2023-05-07T09:57:15;2.60;;;2.13;;
27684;SDS011;46113;50.130;8.526;2023-05-07T09:59:48;2.47;;;2.25;;
27684;SDS011;46113;50.130;8.526;2023-05-07T10:02:19;3.15;;;2.40;;
27684;SDS011;46113;50.130;8.526;2023-05-07T10:04:50;3.75;;;2.60;;
27684;SDS011;46113;50.130;8.526;2023-05-07T10:07:22;2.97;;;2.63;;
27684;SDS011;46113;50.130;8.526;2023-05-07T10:09:53;1.90;;;1.80;;
27684;SDS011;46113;50.130;8.526;2023-05-07T10:12:28;1.83;;;1.73;;
27684;SDS011;46113;50.130;8.526;2023-05-07T10:14:56;6.50;;;2.15;;
27684;SDS011;46113;50.130;8.526;2023-05-07T10:17:23;2.20;;;1.85;;
27684;SDS011;46113;50.130;8.526;2023-05-07T10:19:51;2.45;;;1.88;;
27684;SDS011;46113;50.130;8.526;2023-05-07T10:22:21;2.45;;;1.90;;
27684;SDS011;46113;50.130;8.526;2023-05-07T10:24:48;3.88;;;2.08;;
27684;SDS011;46113;50.130;8.526;2023-05-07T10:27:18;2.45;;;1.83;;
27684;SDS011;46113;50.130;8.526;2023-05-07T10:29:53;3.55;;;2.15;;
27684;SDS011;46113;50.130;8.526;2023-05-07T10:35:29;2.38;;;2.17;;
27684;SDS011;46113;50.130;8.526;2023-05-07T10:38:01;2.55;;;2.17;;
27684;SDS011;46113;50.130;8.526;2023-05-07T10:40:31;9.95;;;2.33;;
27684;SDS011;46113;50.130;8.526;2023-05-07T10:43:00;2.35;;;1.73;;
27684;SDS011;46113;50.130;8.526;2023-05-07T10:45:34;2.05;;;1.70;;
27684;SDS011;46113;50.130;8.526;2023-05-07T10:48:10;4.85;;;2.20;;
27684;SDS011;46113;50.130;8.526;2023-05-07T10:53:45;2.13;;;1.92;;
27684;SDS011;46113;50.130;8.526;2023-05-07T10:58:48;2.10;;;1.73;;
27684;SDS011;46113;50.130;8.526;2023-05-07T11:04:35;1.95;;;1.80;;
27684;SDS011;46113;50.130;8.526;2023-05-07T11:07:26;2.60;;;1.90;;
27684;SDS011;46113;50.130;8.526;2023-05-07T11:10:08;4.38;;;1.80;;
27684;SDS011;46113;50.130;8.526;2023-05-07T11:15:33;2.05;;;1.88;;
27684;SDS011;46113;50.130;8.526;2023-05-07T11:18:46;2.83;;;2.10;;
27684;SDS011;46113;50.130;8.526;2023-05-07T11:21:31;1.60;;;1.50;;
27684;SDS011;46113;50.130;8.526;2023-05-07T11:24:40;1.88;;;1.65;;
27684;SDS011;46113;50.130;8.526;2023-05-07T11:27:11;2.05;;;1.70;;
27684;SDS011;46113;50.130;8.526;2023-05-07T11:29:38;1.50;;;1.40;;
27684;SDS011;46113;50.130;8.526;2023-05-07T11:32:09;4.10;;;1.60;;
27684;SDS011;46113;50.130;8.526;2023-05-07T11:34:51;3.50;;;1.77;;
27684;SDS011;46113;50.130;8.526;2023-05-07T11:37:19;1.85;;;1.60;;
27684;SDS011;46113;50.130;8.526;2023-05-07T11:40:05;2.78;;;1.77;;
27684;SDS011;46113;50.130;8.526;2023-05-07T11:42:35;1.58;;;1.42;;
27684;SDS011;46113;50.130;8.526;2023-05-07T11:48:40;2.13;;;1.48;;
27684;SDS011;46113;50.130;8.526;2023-05-07T11:51:07;2.88;;;2.28;;
27684;SDS011;46113;50.130;8.526;2023-05-07T11:53:41;1.73;;;1.50;;
27684;SDS011;46113;50.130;8.526;2023-05-07T11:56:09;3.45;;;1.95;;
27684;SDS011;46113;50.130;8.526;2023-05-07T11:58:37;1.75;;;1.63;;
27684;SDS011;46113;50.130;8.526;2023-05-07T12:05:22;1.52;;;1.42;;
27684;SDS011;46113;50.130;8.526;2023-05-07T12:07:48;2.30;;;1.63;;
27684;SDS011;46113;50.130;8.526;2023-05-07T12:10:22;2.88;;;1.08;;
27684;SDS011;46113;50.130;8.526;2023-05-07T12:12:51;2.17;;;1.50;;
27684;SDS011;46113;50.130;8.526;2023-05-07T12:15:17;2.08;;;1.30;;
27684;SDS011;46113;50.130;8.526;2023-05-07T12:17:49;2.72;;;1.40;;
27684;SDS011;46113;50.130;8.526;2023-05-07T12:20:16;1.20;;;1.10;;
27684;SDS011;46113;50.130;8.526;2023-05-07T12:22:43;1.48;;;1.15;;
27684;SDS011;46113;50.130;8.526;2023-05-07T12:25:10;2.38;;;1.30;;
27684;SDS011;46113;50.130;8.526;2023-05-07T12:27:37;1.98;;;1.25;;
27684;SDS011;46113;50.130;8.526;2023-05-07T12:30:05;1.23;;;1.13;;
27684;SDS011;46113;50.130;8.526;2023-05-07T12:32:33;2.50;;;1.40;;
27684;SDS011;46113;50.130;8.526;2023-05-07T12:35:03;2.13;;;1.63;;
27684;SDS011;46113;50.130;8.526;2023-05-07T12:37:32;5.57;;;1.17;;
27684;SDS011;46113;50.130;8.526;2023-05-07T12:40:08;0.95;;;0.93;;
27684;SDS011;46113;50.130;8.526;2023-05-07T12:42:36;3.20;;;1.20;;
27684;SDS011;46113;50.130;8.526;2023-05-07T12:45:07;2.15;;;0.90;;
27684;SDS011;46113;50.130;8.526;2023-05-07T12:47:35;3.47;;;1.20;;
27684;SDS011;46113;50.130;8.526;2023-05-07T12:50:04;2.65;;;1.38;;
27684;SDS011;46113;50.130;8.526;2023-05-07T12:52:32;2.22;;;1.20;;
27684;SDS011;46113;50.130;8.526;2023-05-07T12:55:09;1.85;;;1.55;;
27684;SDS011;46113;50.130;8.526;2023-05-07T12:57:40;1.50;;;1.02;;
27684;SDS011;46113;50.130;8.526;2023-05-07T13:00:08;1.17;;;1.08;;
27684;SDS011;46113;50.130;8.526;2023-05-07T13:02:39;6.70;;;2.42;;
27684;SDS011;46113;50.130;8.526;2023-05-07T13:05:11;3.58;;;2.15;;
27684;SDS011;46113;50.130;8.526;2023-05-07T13:07:38;4.45;;;1.15;;
27684;SDS011;46113;50.130;8.526;2023-05-07T13:10:16;2.33;;;1.20;;
27684;SDS011;46113;50.130;8.526;2023-05-07T13:12:43;1.10;;;1.00;;
27684;SDS011;46113;50.130;8.526;2023-05-07T13:15:10;1.67;;;0.95;;
27684;SDS011;46113;50.130;8.526;2023-05-07T13:17:37;2.40;;;1.30;;
27684;SDS011;46113;50.130;8.526;2023-05-07T13:20:11;1.92;;;1.17;;
27684;SDS011;46113;50.130;8.526;2023-05-07T13:22:39;1.83;;;1.73;;
27684;SDS011;46113;50.130;8.526;2023-05-07T13:25:08;1.70;;;1.00;;
27684;SDS011;46113;50.130;8.526;2023-05-07T13:27:35;1.30;;;1.20;;
27684;SDS011;46113;50.130;8.526;2023-05-07T13:30:03;1.30;;;1.20;;
27684;SDS011;46113;50.130;8.526;2023-05-07T13:32:31;1.73;;;1.40;;
27684;SDS011;46113;50.130;8.526;2023-05-07T13:34:58;3.47;;;1.27;;
27684;SDS011;46113;50.130;8.526;2023-05-07T13:40:42;3.30;;;1.50;;
27684;SDS011;46113;50.130;8.526;2023-05-07T13:43:09;1.33;;;1.23;;
27684;SDS011;46113;50.130;8.526;2023-05-07T13:45:37;4.18;;;1.75;;
27684;SDS011;46113;50.130;8.526;2023-05-07T13:48:03;2.30;;;1.60;;
27684;SDS011;46113;50.130;8.526;2023-05-07T13:50:30;2.17;;;1.70;;
27684;SDS011;46113;50.130;8.526;2023-05-07T13:52:57;2.00;;;1.73;;
27684;SDS011;46113;50.130;8.526;2023-05-07T13:55:24;2.42;;;2.05;;
27684;SDS011;46113;50.130;8.526;2023-05-07T13:57:58;2.67;;;1.70;;
27684;SDS011;46113;50.130;8.526;2023-05-07T14:00:26;1.42;;;1.30;;
27684;SDS011;46113;50.130;8.526;2023-05-07T14:02:53;1.77;;;1.63;;
27684;SDS011;46113;50.130;8.526;2023-05-07T14:05:21;5.53;;;2.00;;
27684;SDS011;46113;50.130;8.526;2023-05-07T14:07:54;2.75;;;1.52;;
27684;SDS011;46113;50.130;8.526;2023-05-07T14:10:21;4.30;;;1.98;;
27684;SDS011;46113;50.130;8.526;2023-05-07T14:12:48;3.05;;;1.45;;
27684;SDS011;46113;50.130;8.526;2023-05-07T14:15:15;1.63;;;1.50;;
27684;SDS011;46113;50.130;8.526;2023-05-07T14:17:43;2.22;;;1.48;;
27684;SDS011;46113;50.130;8.526;2023-05-07T14:20:10;3.53;;;1.50;;
27684;SDS011;46113;50.130;8.526;2023-05-07T14:22:38;2.92;;;1.48;;
27684;SDS011;46113;50.130;8.526;2023-05-07T14:25:05;1.40;;;1.20;;
27684;SDS011;46113;50.130;8.526;2023-05-07T14:27:32;2.58;;;2.13;;
27684;SDS011;46113;50.130;8.526;2023-05-07T14:29:59;2.40;;;2.05;;
27684;SDS011;46113;50.130;8.526;2023-05-07T14:32:26;4.72;;;2.05;;
27684;SDS011;46113;50.130;8.526;2023-05-07T14:34:53;3.88;;;1.73;;
27684;SDS011;46113;50.130;8.526;2023-05-07T14:37:19;1.95;;;1.20;;
27684;SDS011;46113;50.130;8.526;2023-05-07T14:39:46;1.42;;;1.30;;
27684;SDS011;46113;50.130;8.526;2023-05-07T14:42:16;1.92;;;1.70;;
27684;SDS011;46113;50.130;8.526;2023-05-07T14:44:44;1.58;;;1.48;;
27684;SDS011;46113;50.130;8.526;2023-05-07T14:47:12;1.80;;;1.30;;
27684;SDS011;46113;50.130;8.526;2023-05-07T14:49:39;1.13;;;1.10;;
27684;SDS011;46113;50.130;8.526;2023-05-07T14:52:07;4.93;;;1.67;;
27684;SDS011;46113;50.130;8.526;2023-05-07T14:54:37;8.95;;;1.38;;
27684;SDS011;46113;50.130;8.526;2023-05-07T14:57:05;1.75;;;1.60;;
27684;SDS011;46113;50.130;8.526;2023-05-07T14:59:32;1.58;;;1.48;;
27684;SDS011;46113;50.130;8.526;2023-05-07T15:01:59;1.95;;;1.23;;
27684;SDS011;46113;50.130;8.526;2023-05-07T15:04:29;1.92;;;1.65;;
27684;SDS011;46113;50.130;8.526;2023-05-07T15:06:56;1.75;;;1.63;;
27684;SDS011;46113;50.130;8.526;2023-05-07T15:09:23;1.80;;;1.67;;
27684;SDS011;46113;50.130;8.526;2023-05-07T15:11:49;2.33;;;1.48;;
27684;SDS011;46113;50.130;8.526;2023-05-07T15:14:16;1.63;;;1.52;;
27684;SDS011;46113;50.130;8.526;2023-05-07T15:16:44;2.92;;;1.75;;
27684;SDS011;46113;50.130;8.526;2023-05-07T15:19:12;3.20;;;1.63;;
27684;SDS011;46113;50.130;8.526;2023-05-07T15:21:41;1.77;;;1.67;;
27684;SDS011;46113;50.130;8.526;2023-05-07T15:24:08;1.98;;;1.50;;
27684;SDS011;46113;50.130;8.526;2023-05-07T15:26:35;5.50;;;4.22;;
27684;SDS011;46113;50.130;8.526;2023-05-07T15:29:02;8.00;;;4.05;;
27684;SDS011;46113;50.130;8.526;2023-05-07T15:31:34;7.30;;;2.50;;
27684;SDS011;46113;50.130;8.526;2023-05-07T15:34:02;2.05;;;1.45;;
27684;SDS011;46113;50.130;8.526;2023-05-07T15:36:29;2.10;;;1.95;;
27684;SDS011;46113;50.130;8.526;2023-05-07T15:38:56;1.98;;;1.88;;